sensor_id;sensor_type;location;lat;lon;timestamp;P1;durP1;ratioP1;P2;durP2;ratioP2
47625;SDS011;33342;45.574;9.252;2023-04-06T00:01:01;12.73;;;6.78;;
47625;SDS011;33342;45.574;9.252;2023-04-06T00:03:28;15.98;;;7.70;;
47625;SDS011;33342;45.574;9.252;2023-04-06T00:05:56;10.98;;;6.55;;
47625;SDS011;33342;45.574;9.252;2023-04-06T00:08:23;13.07;;;6.68;;
47625;SDS011;33342;45.574;9.252;2023-04-06T00:10:50;11.60;;;7.28;;
47625;SDS011;33342;45.574;9.252;2023-04-06T00:13:17;10.30;;;6.70;;
47625;SDS011;33342;45.574;9.252;2023-04-06T00:15:44;11.45;;;6.40;;
47625;SDS011;33342;45.574;9.252;2023-04-06T00:18:11;12.02;;;7.10;;
47625;SDS011;33342;45.574;9.252;2023-04-06T00:20:38;11.52;;;6.38;;
47625;SDS011;33342;45.574;9.252;2023-04-06T00:23:05;16.35;;;7.30;;
47625;SDS011;33342;45.574;9.252;2023-04-06T00:25:32;12.27;;;7.13;;
47625;SDS011;33342;45.574;9.252;2023-04-06T00:27:59;11.68;;;7.40;;
47625;SDS011;33342;45.574;9.252;2023-04-06T00:30:26;13.32;;;6.82;;
47625;SDS011;33342;45.574;9.252;2023-04-06T00:32:53;13.32;;;6.93;;
47625;SDS011;33342;45.574;9.252;2023-04-06T00:35:21;11.85;;;6.38;;
47625;SDS011;33342;45.574;9.252;2023-04-06T00:37:48;10.77;;;7.13;;
47625;SDS011;33342;45.574;9.252;2023-04-06T00:40:15;13.20;;;6.78;;
47625;SDS011;33342;45.574;9.252;2023-04-06T00:42:42;12.98;;;6.93;;
47625;SDS011;33342;45.574;9.252;2023-04-06T00:45:10;12.43;;;6.50;;
47625;SDS011;33342;45.574;9.252;2023-04-06T00:47:38;12.65;;;6.95;;
47625;SDS011;33342;45.574;9.252;2023-04-06T00:50:05;13.20;;;7.22;;
47625;SDS011;33342;45.574;9.252;2023-04-06T00:52:34;12.57;;;7.15;;
47625;SDS011;33342;45.574;9.252;2023-04-06T00:55:03;14.02;;;7.45;;
47625;SDS011;33342;45.574;9.252;2023-04-06T00:57:32;11.57;;;7.13;;
47625;SDS011;33342;45.574;9.252;2023-04-06T00:59:59;12.32;;;6.35;;
47625;SDS011;33342;45.574;9.252;2023-04-06T01:02:26;16.95;;;7.00;;
47625;SDS011;33342;45.574;9.252;2023-04-06T01:04:54;14.73;;;7.40;;
47625;SDS011;33342;45.574;9.252;2023-04-06T01:07:40;12.52;;;7.55;;
47625;SDS011;33342;45.574;9.252;2023-04-06T01:10:21;13.50;;;8.02;;
47625;SDS011;33342;45.574;9.252;2023-04-06T01:12:59;11.70;;;7.00;;
47625;SDS011;33342;45.574;9.252;2023-04-06T01:15:42;12.68;;;7.03;;
47625;SDS011;33342;45.574;9.252;2023-04-06T01:18:13;11.93;;;7.53;;
47625;SDS011;33342;45.574;9.252;2023-04-06T01:20:49;12.65;;;7.55;;
47625;SDS011;33342;45.574;9.252;2023-04-06T01:23:16;11.50;;;7.07;;
47625;SDS011;33342;45.574;9.252;2023-04-06T01:25:46;12.90;;;7.40;;
47625;SDS011;33342;45.574;9.252;2023-04-06T01:28:13;15.20;;;7.40;;
47625;SDS011;33342;45.574;9.252;2023-04-06T01:31:06;11.68;;;7.50;;
47625;SDS011;33342;45.574;9.252;2023-04-06T01:33:41;17.57;;;7.63;;
47625;SDS011;33342;45.574;9.252;2023-04-06T01:36:11;14.77;;;8.10;;
47625;SDS011;33342;45.574;9.252;2023-04-06T01:38:39;12.00;;;7.22;;
47625;SDS011;33342;45.574;9.252;2023-04-06T01:41:06;12.02;;;7.45;;
47625;SDS011;33342;45.574;9.252;2023-04-06T01:43:46;13.18;;;7.60;;
47625;SDS011;33342;45.574;9.252;2023-04-06T01:46:14;14.75;;;7.43;;
47625;SDS011;33342;45.574;9.252;2023-04-06T01:48:43;13.57;;;7.50;;
47625;SDS011;33342;45.574;9.252;2023-04-06T01:51:34;15.05;;;7.60;;
47625;SDS011;33342;45.574;9.252;2023-04-06T01:54:04;12.20;;;7.05;;
47625;SDS011;33342;45.574;9.252;2023-04-06T01:56:49;11.20;;;6.75;;
47625;SDS011;33342;45.574;9.252;2023-04-06T01:59:44;11.63;;;6.72;;
47625;SDS011;33342;45.574;9.252;2023-04-06T02:02:19;15.60;;;7.45;;
47625;SDS011;33342;45.574;9.252;2023-04-06T02:04:57;12.52;;;6.80;;
47625;SDS011;33342;45.574;9.252;2023-04-06T02:07:24;13.88;;;7.53;;
47625;SDS011;33342;45.574;9.252;2023-04-06T02:09:53;11.57;;;7.20;;
47625;SDS011;33342;45.574;9.252;2023-04-06T02:12:32;12.35;;;7.30;;
47625;SDS011;33342;45.574;9.252;2023-04-06T02:15:00;13.43;;;7.05;;
47625;SDS011;33342;45.574;9.252;2023-04-06T02:17:28;12.05;;;7.25;;
47625;SDS011;33342;45.574;9.252;2023-04-06T02:19:55;14.52;;;7.20;;
47625;SDS011;33342;45.574;9.252;2023-04-06T02:22:22;11.25;;;6.55;;
47625;SDS011;33342;45.574;9.252;2023-04-06T02:24:49;13.70;;;7.03;;
47625;SDS011;33342;45.574;9.252;2023-04-06T02:27:17;12.02;;;6.53;;
47625;SDS011;33342;45.574;9.252;2023-04-06T02:29:46;10.73;;;6.30;;
47625;SDS011;33342;45.574;9.252;2023-04-06T02:32:17;14.02;;;6.88;;
47625;SDS011;33342;45.574;9.252;2023-04-06T02:34:45;10.98;;;6.72;;
47625;SDS011;33342;45.574;9.252;2023-04-06T02:37:12;14.00;;;6.57;;
47625;SDS011;33342;45.574;9.252;2023-04-06T02:39:39;13.45;;;7.18;;
47625;SDS011;33342;45.574;9.252;2023-04-06T02:42:08;11.50;;;6.63;;
47625;SDS011;33342;45.574;9.252;2023-04-06T02:44:35;11.63;;;6.75;;
47625;SDS011;33342;45.574;9.252;2023-04-06T02:47:02;12.90;;;6.60;;
47625;SDS011;33342;45.574;9.252;2023-04-06T02:49:30;11.38;;;6.43;;
47625;SDS011;33342;45.574;9.252;2023-04-06T02:51:58;9.73;;;6.47;;
47625;SDS011;33342;45.574;9.252;2023-04-06T02:54:32;13.52;;;6.45;;
47625;SDS011;33342;45.574;9.252;2023-04-06T02:57:00;13.13;;;6.75;;
47625;SDS011;33342;45.574;9.252;2023-04-06T02:59:38;11.15;;;6.28;;
47625;SDS011;33342;45.574;9.252;2023-04-06T03:02:19;13.30;;;6.45;;
47625;SDS011;33342;45.574;9.252;2023-04-06T03:04:47;13.68;;;7.38;;
47625;SDS011;33342;45.574;9.252;2023-04-06T03:07:29;10.85;;;6.68;;
47625;SDS011;33342;45.574;9.252;2023-04-06T03:09:56;10.80;;;5.80;;
47625;SDS011;33342;45.574;9.252;2023-04-06T03:12:23;10.88;;;5.88;;
47625;SDS011;33342;45.574;9.252;2023-04-06T03:15:11;10.35;;;6.68;;
47625;SDS011;33342;45.574;9.252;2023-04-06T03:17:43;10.88;;;6.60;;
47625;SDS011;33342;45.574;9.252;2023-04-06T03:20:21;15.90;;;6.78;;
47625;SDS011;33342;45.574;9.252;2023-04-06T03:22:48;11.95;;;6.88;;
47625;SDS011;33342;45.574;9.252;2023-04-06T03:25:19;9.57;;;5.72;;
47625;SDS011;33342;45.574;9.252;2023-04-06T03:27:46;12.27;;;7.00;;
47625;SDS011;33342;45.574;9.252;2023-04-06T03:30:17;11.98;;;6.20;;
47625;SDS011;33342;45.574;9.252;2023-04-06T03:32:44;13.55;;;6.53;;
47625;SDS011;33342;45.574;9.252;2023-04-06T03:35:11;10.25;;;5.82;;
47625;SDS011;33342;45.574;9.252;2023-04-06T03:37:38;10.57;;;6.15;;
47625;SDS011;33342;45.574;9.252;2023-04-06T03:40:06;8.68;;;5.78;;
47625;SDS011;33342;45.574;9.252;2023-04-06T03:42:33;9.98;;;5.53;;
47625;SDS011;33342;45.574;9.252;2023-04-06T03:45:06;13.05;;;6.82;;
47625;SDS011;33342;45.574;9.252;2023-04-06T03:47:35;14.20;;;6.28;;
47625;SDS011;33342;45.574;9.252;2023-04-06T03:50:05;9.95;;;5.95;;
47625;SDS011;33342;45.574;9.252;2023-04-06T03:52:34;10.45;;;5.95;;
47625;SDS011;33342;45.574;9.252;2023-04-06T03:55:02;9.77;;;5.82;;
47625;SDS011;33342;45.574;9.252;2023-04-06T03:57:29;11.15;;;6.07;;
47625;SDS011;33342;45.574;9.252;2023-04-06T03:59:57;10.13;;;5.45;;
47625;SDS011;33342;45.574;9.252;2023-04-06T04:02:25;12.77;;;6.30;;
47625;SDS011;33342;45.574;9.252;2023-04-06T04:04:52;10.02;;;5.97;;
47625;SDS011;33342;45.574;9.252;2023-04-06T04:07:19;10.23;;;5.53;;
47625;SDS011;33342;45.574;9.252;2023-04-06T04:09:46;12.93;;;6.07;;
47625;SDS011;33342;45.574;9.252;2023-04-06T04:12:13;11.27;;;6.00;;
47625;SDS011;33342;45.574;9.252;2023-04-06T04:14:41;12.43;;;6.63;;
47625;SDS011;33342;45.574;9.252;2023-04-06T04:17:10;9.88;;;6.13;;
47625;SDS011;33342;45.574;9.252;2023-04-06T04:19:37;9.98;;;5.32;;
47625;SDS011;33342;45.574;9.252;2023-04-06T04:22:05;9.80;;;5.80;;
47625;SDS011;33342;45.574;9.252;2023-04-06T04:24:36;10.32;;;5.70;;
47625;SDS011;33342;45.574;9.252;2023-04-06T04:27:03;10.20;;;5.05;;
47625;SDS011;33342;45.574;9.252;2023-04-06T04:29:32;10.98;;;5.32;;
47625;SDS011;33342;45.574;9.252;2023-04-06T04:32:03;9.90;;;6.05;;
47625;SDS011;33342;45.574;9.252;2023-04-06T04:34:31;10.30;;;5.85;;
47625;SDS011;33342;45.574;9.252;2023-04-06T04:36:59;11.25;;;5.88;;
47625;SDS011;33342;45.574;9.252;2023-04-06T04:42:12;9.57;;;5.95;;
47625;SDS011;33342;45.574;9.252;2023-04-06T04:44:45;10.50;;;6.03;;
47625;SDS011;33342;45.574;9.252;2023-04-06T04:47:17;10.55;;;6.72;;
47625;SDS011;33342;45.574;9.252;2023-04-06T04:49:47;12.65;;;5.88;;
47625;SDS011;33342;45.574;9.252;2023-04-06T04:52:19;11.55;;;6.40;;
47625;SDS011;33342;45.574;9.252;2023-04-06T04:55:05;12.60;;;6.68;;
47625;SDS011;33342;45.574;9.252;2023-04-06T04:57:32;10.50;;;5.60;;
47625;SDS011;33342;45.574;9.252;2023-04-06T05:00:00;11.88;;;6.20;;
47625;SDS011;33342;45.574;9.252;2023-04-06T05:02:28;13.75;;;6.50;;
47625;SDS011;33342;45.574;9.252;2023-04-06T05:05:16;11.75;;;6.70;;
47625;SDS011;33342;45.574;9.252;2023-04-06T05:07:44;11.20;;;6.82;;
47625;SDS011;33342;45.574;9.252;2023-04-06T05:10:20;11.07;;;6.35;;
47625;SDS011;33342;45.574;9.252;2023-04-06T05:12:59;10.95;;;6.60;;
47625;SDS011;33342;45.574;9.252;2023-04-06T05:15:26;12.43;;;6.75;;
47625;SDS011;33342;45.574;9.252;2023-04-06T05:18:00;16.15;;;7.95;;
47625;SDS011;33342;45.574;9.252;2023-04-06T05:20:32;19.40;;;8.27;;
47625;SDS011;33342;45.574;9.252;2023-04-06T05:22:59;17.02;;;8.02;;
47625;SDS011;33342;45.574;9.252;2023-04-06T05:25:27;15.95;;;8.10;;
47625;SDS011;33342;45.574;9.252;2023-04-06T05:27:59;12.75;;;7.72;;
47625;SDS011;33342;45.574;9.252;2023-04-06T05:30:33;16.23;;;7.57;;
47625;SDS011;33342;45.574;9.252;2023-04-06T05:33:02;13.00;;;7.05;;
47625;SDS011;33342;45.574;9.252;2023-04-06T05:35:41;19.92;;;7.43;;
47625;SDS011;33342;45.574;9.252;2023-04-06T05:38:11;12.15;;;7.35;;
47625;SDS011;33342;45.574;9.252;2023-04-06T05:40:39;12.32;;;7.43;;
47625;SDS011;33342;45.574;9.252;2023-04-06T05:43:11;16.52;;;7.55;;
47625;SDS011;33342;45.574;9.252;2023-04-06T05:45:43;11.82;;;7.20;;
47625;SDS011;33342;45.574;9.252;2023-04-06T05:48:12;17.73;;;8.23;;
47625;SDS011;33342;45.574;9.252;2023-04-06T05:50:39;16.73;;;7.68;;
47625;SDS011;33342;45.574;9.252;2023-04-06T05:53:08;18.70;;;9.20;;
47625;SDS011;33342;45.574;9.252;2023-04-06T05:55:40;17.70;;;8.80;;
47625;SDS011;33342;45.574;9.252;2023-04-06T05:58:12;17.42;;;8.60;;
47625;SDS011;33342;45.574;9.252;2023-04-06T06:00:40;15.57;;;7.97;;
47625;SDS011;33342;45.574;9.252;2023-04-06T06:03:09;14.63;;;8.00;;
47625;SDS011;33342;45.574;9.252;2023-04-06T06:05:39;16.08;;;8.40;;
47625;SDS011;33342;45.574;9.252;2023-04-06T06:08:15;17.08;;;8.48;;
47625;SDS011;33342;45.574;9.252;2023-04-06T06:10:43;16.23;;;8.35;;
47625;SDS011;33342;45.574;9.252;2023-04-06T06:13:11;21.33;;;8.85;;
47625;SDS011;33342;45.574;9.252;2023-04-06T06:15:38;20.13;;;8.93;;
47625;SDS011;33342;45.574;9.252;2023-04-06T06:18:05;17.92;;;8.38;;
47625;SDS011;33342;45.574;9.252;2023-04-06T06:20:33;19.77;;;8.35;;
47625;SDS011;33342;45.574;9.252;2023-04-06T06:23:03;18.73;;;9.73;;
47625;SDS011;33342;45.574;9.252;2023-04-06T06:25:31;18.00;;;8.50;;
47625;SDS011;33342;45.574;9.252;2023-04-06T06:27:59;14.30;;;8.38;;
47625;SDS011;33342;45.574;9.252;2023-04-06T06:30:29;17.23;;;8.88;;
47625;SDS011;33342;45.574;9.252;2023-04-06T06:32:56;18.65;;;8.45;;
47625;SDS011;33342;45.574;9.252;2023-04-06T06:35:24;20.67;;;9.60;;
47625;SDS011;33342;45.574;9.252;2023-04-06T06:37:51;19.73;;;8.55;;
47625;SDS011;33342;45.574;9.252;2023-04-06T06:40:22;15.10;;;9.20;;
47625;SDS011;33342;45.574;9.252;2023-04-06T06:42:52;14.40;;;8.68;;
47625;SDS011;33342;45.574;9.252;2023-04-06T06:45:39;14.98;;;8.20;;
47625;SDS011;33342;45.574;9.252;2023-04-06T06:48:06;15.73;;;8.05;;
47625;SDS011;33342;45.574;9.252;2023-04-06T06:50:33;12.23;;;7.32;;
47625;SDS011;33342;45.574;9.252;2023-04-06T06:53:01;15.15;;;7.28;;
47625;SDS011;33342;45.574;9.252;2023-04-06T06:55:28;18.70;;;7.15;;
47625;SDS011;33342;45.574;9.252;2023-04-06T06:57:55;14.00;;;7.05;;
47625;SDS011;33342;45.574;9.252;2023-04-06T07:00:22;11.35;;;5.97;;
47625;SDS011;33342;45.574;9.252;2023-04-06T07:02:50;11.73;;;7.40;;
47625;SDS011;33342;45.574;9.252;2023-04-06T07:05:17;12.50;;;6.15;;
47625;SDS011;33342;45.574;9.252;2023-04-06T07:07:56;10.93;;;5.60;;
47625;SDS011;33342;45.574;9.252;2023-04-06T07:10:24;15.55;;;6.18;;
47625;SDS011;33342;45.574;9.252;2023-04-06T07:12:53;11.90;;;6.10;;
47625;SDS011;33342;45.574;9.252;2023-04-06T07:15:20;11.25;;;7.18;;
47625;SDS011;33342;45.574;9.252;2023-04-06T07:17:48;11.48;;;6.28;;
47625;SDS011;33342;45.574;9.252;2023-04-06T07:20:15;12.82;;;6.85;;
47625;SDS011;33342;45.574;9.252;2023-04-06T07:22:43;12.40;;;6.95;;
47625;SDS011;33342;45.574;9.252;2023-04-06T07:25:13;12.82;;;6.20;;
47625;SDS011;33342;45.574;9.252;2023-04-06T07:27:40;13.70;;;6.60;;
47625;SDS011;33342;45.574;9.252;2023-04-06T07:30:08;14.77;;;6.63;;
47625;SDS011;33342;45.574;9.252;2023-04-06T07:32:35;11.07;;;6.50;;
47625;SDS011;33342;45.574;9.252;2023-04-06T07:35:03;11.70;;;7.07;;
47625;SDS011;33342;45.574;9.252;2023-04-06T07:37:30;12.35;;;6.75;;
47625;SDS011;33342;45.574;9.252;2023-04-06T07:39:57;15.75;;;6.60;;
47625;SDS011;33342;45.574;9.252;2023-04-06T07:42:25;8.40;;;5.20;;
47625;SDS011;33342;45.574;9.252;2023-04-06T07:44:52;10.50;;;4.90;;
47625;SDS011;33342;45.574;9.252;2023-04-06T07:47:20;9.45;;;4.38;;
47625;SDS011;33342;45.574;9.252;2023-04-06T07:49:48;12.07;;;4.70;;
47625;SDS011;33342;45.574;9.252;2023-04-06T07:52:15;6.57;;;4.15;;
47625;SDS011;33342;45.574;9.252;2023-04-06T07:54:43;8.45;;;3.92;;
47625;SDS011;33342;45.574;9.252;2023-04-06T07:57:10;8.43;;;4.13;;
47625;SDS011;33342;45.574;9.252;2023-04-06T07:59:37;8.75;;;4.30;;
47625;SDS011;33342;45.574;9.252;2023-04-06T08:02:05;8.65;;;4.85;;
47625;SDS011;33342;45.574;9.252;2023-04-06T08:04:32;7.97;;;4.13;;
47625;SDS011;33342;45.574;9.252;2023-04-06T08:07:00;9.65;;;3.75;;
47625;SDS011;33342;45.574;9.252;2023-04-06T08:09:27;10.48;;;4.72;;
47625;SDS011;33342;45.574;9.252;2023-04-06T08:11:54;11.45;;;3.90;;
47625;SDS011;33342;45.574;9.252;2023-04-06T08:14:21;6.95;;;3.70;;
47625;SDS011;33342;45.574;9.252;2023-04-06T08:16:48;8.50;;;3.90;;
47625;SDS011;33342;45.574;9.252;2023-04-06T08:19:15;8.50;;;4.00;;
47625;SDS011;33342;45.574;9.252;2023-04-06T08:21:43;10.05;;;4.57;;
47625;SDS011;33342;45.574;9.252;2023-04-06T08:24:12;9.02;;;4.43;;
47625;SDS011;33342;45.574;9.252;2023-04-06T08:26:40;9.32;;;5.18;;
47625;SDS011;33342;45.574;9.252;2023-04-06T08:29:08;9.00;;;4.72;;
47625;SDS011;33342;45.574;9.252;2023-04-06T08:31:35;11.27;;;4.65;;
47625;SDS011;33342;45.574;9.252;2023-04-06T08:34:03;11.80;;;6.35;;
47625;SDS011;33342;45.574;9.252;2023-04-06T08:36:32;9.70;;;5.75;;
47625;SDS011;33342;45.574;9.252;2023-04-06T08:38:59;10.70;;;5.07;;
47625;SDS011;33342;45.574;9.252;2023-04-06T08:41:27;11.70;;;5.30;;
47625;SDS011;33342;45.574;9.252;2023-04-06T08:46:28;8.73;;;5.68;;
47625;SDS011;33342;45.574;9.252;2023-04-06T08:48:57;12.05;;;6.00;;
47625;SDS011;33342;45.574;9.252;2023-04-06T08:51:25;10.13;;;5.43;;
47625;SDS011;33342;45.574;9.252;2023-04-06T08:53:54;13.05;;;6.07;;
47625;SDS011;33342;45.574;9.252;2023-04-06T08:56:25;10.00;;;5.30;;
47625;SDS011;33342;45.574;9.252;2023-04-06T08:58:53;13.27;;;5.35;;
47625;SDS011;33342;45.574;9.252;2023-04-06T09:01:28;10.70;;;5.53;;
47625;SDS011;33342;45.574;9.252;2023-04-06T09:03:59;12.07;;;5.50;;
47625;SDS011;33342;45.574;9.252;2023-04-06T09:06:32;13.30;;;5.53;;
47625;SDS011;33342;45.574;9.252;2023-04-06T09:08:59;9.90;;;4.93;;
47625;SDS011;33342;45.574;9.252;2023-04-06T09:11:26;10.45;;;5.18;;
47625;SDS011;33342;45.574;9.252;2023-04-06T09:13:56;13.45;;;6.25;;
47625;SDS011;33342;45.574;9.252;2023-04-06T09:16:24;16.05;;;5.75;;
47625;SDS011;33342;45.574;9.252;2023-04-06T09:18:52;12.55;;;5.93;;
47625;SDS011;33342;45.574;9.252;2023-04-06T09:21:19;11.15;;;5.97;;
47625;SDS011;33342;45.574;9.252;2023-04-06T09:24:00;11.48;;;5.97;;
47625;SDS011;33342;45.574;9.252;2023-04-06T09:26:30;13.35;;;6.68;;
47625;SDS011;33342;45.574;9.252;2023-04-06T09:29:00;10.48;;;5.57;;
47625;SDS011;33342;45.574;9.252;2023-04-06T09:31:28;10.65;;;5.97;;
47625;SDS011;33342;45.574;9.252;2023-04-06T09:33:59;11.50;;;6.10;;
47625;SDS011;33342;45.574;9.252;2023-04-06T09:36:30;11.80;;;5.43;;
47625;SDS011;33342;45.574;9.252;2023-04-06T09:39:00;14.55;;;5.97;;
47625;SDS011;33342;45.574;9.252;2023-04-06T09:41:29;12.27;;;6.65;;
47625;SDS011;33342;45.574;9.252;2023-04-06T09:44:10;10.32;;;6.10;;
47625;SDS011;33342;45.574;9.252;2023-04-06T09:46:39;11.77;;;5.80;;
47625;SDS011;33342;45.574;9.252;2023-04-06T09:49:24;12.73;;;6.37;;
47625;SDS011;33342;45.574;9.252;2023-04-06T09:52:02;13.20;;;7.53;;
47625;SDS011;33342;45.574;9.252;2023-04-06T09:54:30;11.05;;;5.45;;
47625;SDS011;33342;45.574;9.252;2023-04-06T10:02:30;14.55;;;6.65;;
47625;SDS011;33342;45.574;9.252;2023-04-06T10:05:06;11.75;;;6.40;;
47625;SDS011;33342;45.574;9.252;2023-04-06T10:07:59;11.95;;;5.93;;
47625;SDS011;33342;45.574;9.252;2023-04-06T10:10:31;12.65;;;6.22;;
47625;SDS011;33342;45.574;9.252;2023-04-06T10:12:59;13.45;;;6.78;;
47625;SDS011;33342;45.574;9.252;2023-04-06T10:15:29;10.63;;;6.35;;
47625;SDS011;33342;45.574;9.252;2023-04-06T10:17:57;12.35;;;6.50;;
47625;SDS011;33342;45.574;9.252;2023-04-06T10:20:30;11.57;;;6.13;;
47625;SDS011;33342;45.574;9.252;2023-04-06T10:23:09;12.88;;;6.55;;
47625;SDS011;33342;45.574;9.252;2023-04-06T10:25:55;10.15;;;6.75;;
47625;SDS011;33342;45.574;9.252;2023-04-06T10:28:24;11.27;;;7.22;;
47625;SDS011;33342;45.574;9.252;2023-04-06T10:31:04;14.93;;;6.75;;
47625;SDS011;33342;45.574;9.252;2023-04-06T10:33:32;20.50;;;9.27;;
47625;SDS011;33342;45.574;9.252;2023-04-06T10:36:21;16.42;;;6.85;;
47625;SDS011;33342;45.574;9.252;2023-04-06T10:38:53;12.75;;;7.38;;
47625;SDS011;33342;45.574;9.252;2023-04-06T10:41:22;12.55;;;7.47;;
47625;SDS011;33342;45.574;9.252;2023-04-06T10:43:56;14.75;;;6.78;;
47625;SDS011;33342;45.574;9.252;2023-04-06T10:46:30;15.27;;;7.55;;
47625;SDS011;33342;45.574;9.252;2023-04-06T10:48:58;12.75;;;6.63;;
47625;SDS011;33342;45.574;9.252;2023-04-06T10:51:39;12.93;;;7.55;;
47625;SDS011;33342;45.574;9.252;2023-04-06T10:54:06;15.00;;;7.45;;
47625;SDS011;33342;45.574;9.252;2023-04-06T10:56:36;12.95;;;6.95;;
47625;SDS011;33342;45.574;9.252;2023-04-06T10:59:05;16.77;;;7.82;;
47625;SDS011;33342;45.574;9.252;2023-04-06T11:01:33;15.80;;;8.35;;
47625;SDS011;33342;45.574;9.252;2023-04-06T11:04:00;12.80;;;7.35;;
47625;SDS011;33342;45.574;9.252;2023-04-06T11:06:28;12.40;;;6.95;;
47625;SDS011;33342;45.574;9.252;2023-04-06T11:08:58;13.82;;;8.05;;
47625;SDS011;33342;45.574;9.252;2023-04-06T11:11:26;14.70;;;7.57;;
47625;SDS011;33342;45.574;9.252;2023-04-06T11:13:54;15.20;;;7.68;;
47625;SDS011;33342;45.574;9.252;2023-04-06T11:16:23;16.52;;;7.25;;
47625;SDS011;33342;45.574;9.252;2023-04-06T11:18:56;12.13;;;7.10;;
47625;SDS011;33342;45.574;9.252;2023-04-06T11:21:31;18.73;;;9.45;;
47625;SDS011;33342;45.574;9.252;2023-04-06T11:24:07;11.65;;;7.40;;
47625;SDS011;33342;45.574;9.252;2023-04-06T11:26:42;15.02;;;7.82;;
47625;SDS011;33342;45.574;9.252;2023-04-06T11:29:10;17.05;;;7.80;;
47625;SDS011;33342;45.574;9.252;2023-04-06T11:31:39;14.20;;;7.03;;
47625;SDS011;33342;45.574;9.252;2023-04-06T11:34:15;12.32;;;6.82;;
47625;SDS011;33342;45.574;9.252;2023-04-06T11:36:44;15.10;;;7.70;;
47625;SDS011;33342;45.574;9.252;2023-04-06T11:39:13;17.30;;;7.95;;
47625;SDS011;33342;45.574;9.252;2023-04-06T11:41:51;17.13;;;7.90;;
47625;SDS011;33342;45.574;9.252;2023-04-06T11:44:42;17.40;;;7.78;;
47625;SDS011;33342;45.574;9.252;2023-04-06T11:47:12;12.10;;;7.63;;
47625;SDS011;33342;45.574;9.252;2023-04-06T11:49:40;12.90;;;7.40;;
47625;SDS011;33342;45.574;9.252;2023-04-06T11:52:19;14.90;;;7.90;;
47625;SDS011;33342;45.574;9.252;2023-04-06T11:54:50;15.32;;;7.40;;
47625;SDS011;33342;45.574;9.252;2023-04-06T11:57:19;12.52;;;6.97;;
47625;SDS011;33342;45.574;9.252;2023-04-06T11:59:47;13.95;;;7.15;;
47625;SDS011;33342;45.574;9.252;2023-04-06T12:02:14;14.57;;;7.70;;
47625;SDS011;33342;45.574;9.252;2023-04-06T12:04:41;13.75;;;7.68;;
47625;SDS011;33342;45.574;9.252;2023-04-06T12:07:08;12.20;;;7.43;;
47625;SDS011;33342;45.574;9.252;2023-04-06T12:09:35;15.80;;;8.48;;
47625;SDS011;33342;45.574;9.252;2023-04-06T12:12:03;13.77;;;7.68;;
47625;SDS011;33342;45.574;9.252;2023-04-06T12:14:30;13.95;;;8.40;;
47625;SDS011;33342;45.574;9.252;2023-04-06T12:16:57;14.48;;;7.30;;
47625;SDS011;33342;45.574;9.252;2023-04-06T12:19:25;15.35;;;7.47;;
47625;SDS011;33342;45.574;9.252;2023-04-06T12:21:53;14.15;;;8.10;;
47625;SDS011;33342;45.574;9.252;2023-04-06T12:24:21;12.80;;;7.72;;
47625;SDS011;33342;45.574;9.252;2023-04-06T12:26:48;13.80;;;7.93;;
47625;SDS011;33342;45.574;9.252;2023-04-06T12:29:25;17.13;;;7.40;;
47625;SDS011;33342;45.574;9.252;2023-04-06T12:31:52;13.60;;;8.07;;
47625;SDS011;33342;45.574;9.252;2023-04-06T12:34:19;16.88;;;8.32;;
47625;SDS011;33342;45.574;9.252;2023-04-06T12:36:46;12.93;;;7.60;;
47625;SDS011;33342;45.574;9.252;2023-04-06T12:39:13;15.88;;;8.20;;
47625;SDS011;33342;45.574;9.252;2023-04-06T12:41:46;14.07;;;7.63;;
47625;SDS011;33342;45.574;9.252;2023-04-06T12:44:13;13.38;;;8.13;;
47625;SDS011;33342;45.574;9.252;2023-04-06T12:46:41;15.45;;;8.73;;
47625;SDS011;33342;45.574;9.252;2023-04-06T12:49:09;14.50;;;8.73;;
47625;SDS011;33342;45.574;9.252;2023-04-06T12:51:37;12.85;;;8.15;;
47625;SDS011;33342;45.574;9.252;2023-04-06T12:54:04;13.45;;;8.05;;
47625;SDS011;33342;45.574;9.252;2023-04-06T12:56:32;14.25;;;8.57;;
47625;SDS011;33342;45.574;9.252;2023-04-06T12:58:59;13.77;;;7.95;;
47625;SDS011;33342;45.574;9.252;2023-04-06T13:01:26;13.85;;;8.23;;
47625;SDS011;33342;45.574;9.252;2023-04-06T13:03:55;13.40;;;7.88;;
47625;SDS011;33342;45.574;9.252;2023-04-06T13:06:23;15.95;;;8.45;;
47625;SDS011;33342;45.574;9.252;2023-04-06T13:08:54;12.85;;;8.05;;
47625;SDS011;33342;45.574;9.252;2023-04-06T13:11:21;15.15;;;7.97;;
47625;SDS011;33342;45.574;9.252;2023-04-06T13:13:53;14.10;;;7.60;;
47625;SDS011;33342;45.574;9.252;2023-04-06T13:16:20;13.90;;;7.63;;
47625;SDS011;33342;45.574;9.252;2023-04-06T13:18:47;14.00;;;8.30;;
47625;SDS011;33342;45.574;9.252;2023-04-06T13:21:16;15.25;;;8.00;;
47625;SDS011;33342;45.574;9.252;2023-04-06T13:23:43;12.93;;;8.02;;
47625;SDS011;33342;45.574;9.252;2023-04-06T13:26:11;14.23;;;8.38;;
47625;SDS011;33342;45.574;9.252;2023-04-06T13:28:39;13.35;;;7.93;;
47625;SDS011;33342;45.574;9.252;2023-04-06T13:31:07;15.25;;;7.95;;
47625;SDS011;33342;45.574;9.252;2023-04-06T13:33:36;13.02;;;7.78;;
47625;SDS011;33342;45.574;9.252;2023-04-06T13:36:03;16.35;;;8.27;;
47625;SDS011;33342;45.574;9.252;2023-04-06T13:38:33;16.88;;;11.07;;
47625;SDS011;33342;45.574;9.252;2023-04-06T13:41:00;15.32;;;8.50;;
47625;SDS011;33342;45.574;9.252;2023-04-06T13:43:27;17.65;;;8.10;;
47625;SDS011;33342;45.574;9.252;2023-04-06T13:45:54;13.93;;;7.90;;
47625;SDS011;33342;45.574;9.252;2023-04-06T13:48:22;15.65;;;8.68;;
47625;SDS011;33342;45.574;9.252;2023-04-06T13:50:49;18.42;;;8.68;;
47625;SDS011;33342;45.574;9.252;2023-04-06T13:53:16;14.00;;;8.27;;
47625;SDS011;33342;45.574;9.252;2023-04-06T13:55:44;15.93;;;11.07;;
47625;SDS011;33342;45.574;9.252;2023-04-06T13:58:18;14.07;;;8.10;;
47625;SDS011;33342;45.574;9.252;2023-04-06T14:00:45;12.63;;;7.70;;
47625;SDS011;33342;45.574;9.252;2023-04-06T14:03:12;13.57;;;8.70;;
47625;SDS011;33342;45.574;9.252;2023-04-06T14:05:40;14.25;;;8.70;;
47625;SDS011;33342;45.574;9.252;2023-04-06T14:08:06;15.02;;;8.63;;
47625;SDS011;33342;45.574;9.252;2023-04-06T14:10:37;17.17;;;10.05;;
47625;SDS011;33342;45.574;9.252;2023-04-06T14:13:06;15.65;;;9.05;;
47625;SDS011;33342;45.574;9.252;2023-04-06T14:15:34;17.77;;;11.73;;
47625;SDS011;33342;45.574;9.252;2023-04-06T14:18:01;19.90;;;12.10;;
47625;SDS011;33342;45.574;9.252;2023-04-06T14:20:30;21.15;;;11.38;;
47625;SDS011;33342;45.574;9.252;2023-04-06T14:23:02;17.52;;;9.45;;
47625;SDS011;33342;45.574;9.252;2023-04-06T14:25:29;14.52;;;8.82;;
47625;SDS011;33342;45.574;9.252;2023-04-06T14:27:58;15.32;;;8.73;;
47625;SDS011;33342;45.574;9.252;2023-04-06T14:30:25;41.35;;;24.38;;
47625;SDS011;33342;45.574;9.252;2023-04-06T14:32:56;24.58;;;16.10;;
47625;SDS011;33342;45.574;9.252;2023-04-06T14:35:24;29.40;;;19.10;;
47625;SDS011;33342;45.574;9.252;2023-04-06T14:37:51;38.03;;;28.98;;
47625;SDS011;33342;45.574;9.252;2023-04-06T14:40:18;20.88;;;14.55;;
47625;SDS011;33342;45.574;9.252;2023-04-06T14:42:48;63.28;;;41.80;;
47625;SDS011;33342;45.574;9.252;2023-04-06T14:45:17;32.42;;;21.63;;
47625;SDS011;33342;45.574;9.252;2023-04-06T14:47:46;20.13;;;10.95;;
47625;SDS011;33342;45.574;9.252;2023-04-06T14:50:13;15.02;;;10.77;;
47625;SDS011;33342;45.574;9.252;2023-04-06T14:52:40;15.20;;;9.82;;
47625;SDS011;33342;45.574;9.252;2023-04-06T14:55:07;14.88;;;9.82;;
47625;SDS011;33342;45.574;9.252;2023-04-06T14:57:35;16.88;;;9.73;;
47625;SDS011;33342;45.574;9.252;2023-04-06T15:00:02;50.53;;;31.58;;
47625;SDS011;33342;45.574;9.252;2023-04-06T15:02:29;18.67;;;13.93;;